UTA226 USHU-USTR
Flight info
| Callsign | UTA226 |
|---|---|
| Flight time | 1h 1m |
| Altitude | 14000 |
| Route | N0240F140 LARUS N167 DELEN |
| Aircraft | AN24/M-I/L |
Departure
| Time | 2026-04-25 10:45 |
|---|---|
| Airport | Uray Airport (USHU) |
Arrival
| Time | 2026-04-25 11:47 |
|---|---|
| Airport | Roshchino International Airport (USTR) |
| Time | Latitude | Longitude | Altitude | Speed | Heading |
|---|---|---|---|---|---|
| 2026-04-25 10:21 | 60.11702 | 64.82494 | 200 ft | 0 kts | 192° |
| 2026-04-25 10:41 | 60.11683 | 64.82501 | 200 ft | 5 kts | 134° |
| 2026-04-25 10:41 | 60.11671 | 64.82587 | 199 ft | 9 kts | 95° |
| 2026-04-25 10:41 | 60.11711 | 64.82652 | 198 ft | 8 kts | 21° |
| 2026-04-25 10:41 | 60.11716 | 64.82787 | 198 ft | 8 kts | 105° |
| 2026-04-25 10:42 | 60.11715 | 64.82796 | 198 ft | 0 kts | 104° |
| 2026-04-25 10:42 | 60.11715 | 64.82798 | 198 ft | 3 kts | 104° |
| 2026-04-25 10:42 | 60.11706 | 64.82870 | 198 ft | 4 kts | 103° |
| 2026-04-25 10:43 | 60.11660 | 64.82986 | 199 ft | 12 kts | 185° |
| 2026-04-25 10:43 | 60.11594 | 64.82958 | 200 ft | 7 kts | 192° |
| 2026-04-25 10:43 | 60.11582 | 64.82953 | 200 ft | 0 kts | 193° |
| 2026-04-25 10:44 | 60.11392 | 64.82870 | 201 ft | 65 kts | 192° |
| 2026-04-25 10:45 | 60.10756 | 64.82589 | 198 ft | 116 kts | 192° |
| 2026-04-25 10:45 | 60.09871 | 64.82201 | 303 ft | 142 kts | 191° |
| 2026-04-25 10:45 | 60.08885 | 64.81783 | 649 ft | 149 kts | 190° |
| 2026-04-25 10:45 | 60.07812 | 64.81351 | 867 ft | 166 kts | 191° |
| 2026-04-25 10:46 | 60.06654 | 64.80910 | 1221 ft | 170 kts | 186° |
| 2026-04-25 10:46 | 60.05514 | 64.81181 | 1625 ft | 169 kts | 160° |
| 2026-04-25 10:46 | 60.04452 | 64.82217 | 1985 ft | 169 kts | 156° |
| 2026-04-25 10:46 | 60.03392 | 64.83017 | 2417 ft | 163 kts | 171° |
| 2026-04-25 10:47 | 60.02237 | 64.83118 | 2625 ft | 170 kts | 179° |
| 2026-04-25 10:47 | 60.01066 | 64.83081 | 3007 ft | 166 kts | 181° |
| 2026-04-25 10:47 | 59.99932 | 64.83019 | 3350 ft | 166 kts | 182° |
| 2026-04-25 10:47 | 59.98765 | 64.82969 | 3620 ft | 169 kts | 181° |
| 2026-04-25 10:48 | 59.97585 | 64.82906 | 3921 ft | 169 kts | 183° |
| 2026-04-25 10:48 | 59.96422 | 64.82834 | 4252 ft | 168 kts | 181° |
| 2026-04-25 10:48 | 59.95253 | 64.82811 | 4513 ft | 171 kts | 181° |
| 2026-04-25 10:48 | 59.94067 | 64.82774 | 4835 ft | 170 kts | 181° |
| 2026-04-25 10:49 | 59.92881 | 64.82751 | 5138 ft | 170 kts | 181° |
| 2026-04-25 10:49 | 59.91709 | 64.82727 | 5410 ft | 172 kts | 181° |
| 2026-04-25 10:49 | 59.90523 | 64.82688 | 5705 ft | 171 kts | 182° |
| 2026-04-25 10:49 | 59.89320 | 64.82645 | 5974 ft | 172 kts | 181° |
| 2026-04-25 10:50 | 59.88130 | 64.82613 | 6234 ft | 172 kts | 181° |
| 2026-04-25 10:50 | 59.86930 | 64.82571 | 6503 ft | 172 kts | 181° |
| 2026-04-25 10:50 | 59.85729 | 64.82526 | 6775 ft | 173 kts | 182° |
| 2026-04-25 10:50 | 59.84520 | 64.82478 | 7050 ft | 174 kts | 182° |
| 2026-04-25 10:51 | 59.83313 | 64.82432 | 7315 ft | 174 kts | 182° |
| 2026-04-25 10:51 | 59.82115 | 64.82384 | 7582 ft | 175 kts | 182° |
| 2026-04-25 10:51 | 59.80896 | 64.82337 | 7849 ft | 175 kts | 183° |
| 2026-04-25 10:51 | 59.79692 | 64.82289 | 8124 ft | 174 kts | 182° |
| 2026-04-25 10:52 | 59.78501 | 64.82243 | 8438 ft | 171 kts | 183° |
| 2026-04-25 10:52 | 59.77320 | 64.82197 | 8741 ft | 169 kts | 183° |
| 2026-04-25 10:52 | 59.76156 | 64.82152 | 9028 ft | 168 kts | 183° |
| 2026-04-25 10:52 | 59.74979 | 64.82107 | 9311 ft | 167 kts | 183° |
| 2026-04-25 10:53 | 59.73833 | 64.82065 | 9588 ft | 166 kts | 183° |
| 2026-04-25 10:53 | 59.72674 | 64.82061 | 9862 ft | 166 kts | 182° |
| 2026-04-25 10:53 | 59.71537 | 64.82056 | 10120 ft | 166 kts | 183° |
| 2026-04-25 10:53 | 59.70388 | 64.82049 | 10376 ft | 166 kts | 183° |
| 2026-04-25 10:54 | 59.69230 | 64.82046 | 10626 ft | 166 kts | 183° |
| 2026-04-25 10:54 | 59.68077 | 64.82040 | 10876 ft | 166 kts | 184° |
| 2026-04-25 10:54 | 59.66927 | 64.82037 | 11126 ft | 165 kts | 184° |
| 2026-04-25 10:54 | 59.65794 | 64.82032 | 11373 ft | 164 kts | 184° |
| 2026-04-25 10:55 | 59.64645 | 64.82030 | 11625 ft | 163 kts | 184° |
| 2026-04-25 10:55 | 59.63518 | 64.82024 | 11870 ft | 162 kts | 185° |
| 2026-04-25 10:55 | 59.62406 | 64.82021 | 12101 ft | 162 kts | 185° |
| 2026-04-25 10:55 | 59.61278 | 64.82017 | 12336 ft | 161 kts | 185° |
| 2026-04-25 10:56 | 59.60169 | 64.82012 | 12557 ft | 161 kts | 185° |
| 2026-04-25 10:56 | 59.59049 | 64.82010 | 12763 ft | 161 kts | 185° |
| 2026-04-25 10:56 | 59.57930 | 64.82004 | 12975 ft | 161 kts | 185° |
| 2026-04-25 10:56 | 59.56820 | 64.82001 | 13179 ft | 161 kts | 186° |
| 2026-04-25 10:57 | 59.55711 | 64.81997 | 13391 ft | 160 kts | 185° |
| 2026-04-25 10:57 | 59.54594 | 64.81992 | 13596 ft | 160 kts | 186° |
| 2026-04-25 10:57 | 59.53466 | 64.81985 | 13680 ft | 166 kts | 186° |
| 2026-04-25 10:57 | 59.52287 | 64.81973 | 13677 ft | 174 kts | 186° |
| 2026-04-25 10:58 | 59.51057 | 64.81963 | 13706 ft | 178 kts | 185° |
| 2026-04-25 10:58 | 59.49802 | 64.81956 | 13694 ft | 183 kts | 185° |
| 2026-04-25 10:58 | 59.48529 | 64.81951 | 13676 ft | 187 kts | 185° |
| 2026-04-25 10:58 | 59.47225 | 64.81944 | 13700 ft | 189 kts | 185° |
| 2026-04-25 10:59 | 59.45903 | 64.81939 | 13695 ft | 191 kts | 186° |
| 2026-04-25 10:59 | 59.44575 | 64.81931 | 13698 ft | 193 kts | 186° |
| 2026-04-25 10:59 | 59.43218 | 64.81926 | 13696 ft | 194 kts | 186° |
| 2026-04-25 10:59 | 59.41870 | 64.81921 | 13699 ft | 195 kts | 185° |
| 2026-04-25 11:00 | 59.40512 | 64.81913 | 13683 ft | 197 kts | 185° |
| 2026-04-25 11:00 | 59.39156 | 64.81909 | 13710 ft | 196 kts | 185° |
| 2026-04-25 11:00 | 59.37793 | 64.81902 | 13699 ft | 197 kts | 186° |
| 2026-04-25 11:00 | 59.36407 | 64.81896 | 13697 ft | 198 kts | 185° |
| 2026-04-25 11:01 | 59.35045 | 64.81890 | 13682 ft | 199 kts | 186° |
| 2026-04-25 11:01 | 59.33655 | 64.81885 | 13708 ft | 198 kts | 185° |
| 2026-04-25 11:01 | 59.32298 | 64.81880 | 13702 ft | 198 kts | 185° |
| 2026-04-25 11:01 | 59.30905 | 64.81873 | 13685 ft | 199 kts | 185° |
| 2026-04-25 11:02 | 59.29531 | 64.81869 | 13705 ft | 198 kts | 185° |
| 2026-04-25 11:02 | 59.28151 | 64.81862 | 13687 ft | 199 kts | 185° |
| 2026-04-25 11:02 | 59.26757 | 64.81857 | 13672 ft | 200 kts | 185° |
| 2026-04-25 11:02 | 59.25390 | 64.81850 | 13694 ft | 199 kts | 186° |
| 2026-04-25 11:03 | 59.24009 | 64.81845 | 13680 ft | 199 kts | 186° |
| 2026-04-25 11:03 | 59.22622 | 64.81839 | 13685 ft | 199 kts | 186° |
| 2026-04-25 11:03 | 59.21254 | 64.81809 | 13687 ft | 198 kts | 187° |
| 2026-04-25 11:03 | 59.19879 | 64.81756 | 13679 ft | 198 kts | 186° |
| 2026-04-25 11:04 | 59.18497 | 64.81705 | 13702 ft | 196 kts | 187° |
| 2026-04-25 11:04 | 59.17133 | 64.81653 | 13689 ft | 197 kts | 187° |
| 2026-04-25 11:04 | 59.15769 | 64.81603 | 13691 ft | 196 kts | 187° |
| 2026-04-25 11:04 | 59.14407 | 64.81551 | 13686 ft | 196 kts | 187° |
| 2026-04-25 11:05 | 59.13061 | 64.81502 | 13706 ft | 195 kts | 186° |
| 2026-04-25 11:05 | 59.11698 | 64.81449 | 13695 ft | 196 kts | 186° |
| 2026-04-25 11:05 | 59.10346 | 64.81399 | 13678 ft | 196 kts | 186° |
| 2026-04-25 11:05 | 59.08984 | 64.81347 | 13686 ft | 196 kts | 187° |
| 2026-04-25 11:06 | 59.07614 | 64.81297 | 13688 ft | 196 kts | 187° |
| 2026-04-25 11:06 | 59.06260 | 64.81245 | 13700 ft | 195 kts | 187° |
| 2026-04-25 11:06 | 59.04895 | 64.81194 | 13679 ft | 196 kts | 187° |
| 2026-04-25 11:06 | 59.03547 | 64.81144 | 13694 ft | 195 kts | 187° |
| 2026-04-25 11:07 | 59.02182 | 64.81094 | 13705 ft | 194 kts | 187° |
| 2026-04-25 11:07 | 59.00834 | 64.81042 | 13679 ft | 196 kts | 187° |
| 2026-04-25 11:07 | 58.99486 | 64.80992 | 13691 ft | 195 kts | 187° |
| 2026-04-25 11:07 | 58.98120 | 64.80940 | 13691 ft | 195 kts | 187° |
| 2026-04-25 11:08 | 58.96771 | 64.80891 | 13672 ft | 196 kts | 187° |
| 2026-04-25 11:08 | 58.95406 | 64.80839 | 13694 ft | 195 kts | 187° |
| 2026-04-25 11:08 | 58.94067 | 64.80789 | 13684 ft | 195 kts | 187° |
| 2026-04-25 11:08 | 58.92699 | 64.80738 | 13700 ft | 194 kts | 187° |
| 2026-04-25 11:09 | 58.91359 | 64.80689 | 13715 ft | 193 kts | 187° |
| 2026-04-25 11:09 | 58.90012 | 64.80637 | 13707 ft | 194 kts | 187° |
| 2026-04-25 11:09 | 58.88676 | 64.80589 | 13707 ft | 194 kts | 187° |
| 2026-04-25 11:09 | 58.87313 | 64.80536 | 13686 ft | 195 kts | 187° |
| 2026-04-25 11:10 | 58.85952 | 64.80488 | 13716 ft | 194 kts | 187° |
| 2026-04-25 11:10 | 58.85060 | 64.80454 | 13727 ft | 194 kts | 187° |
| 2026-04-25 11:10 | 58.83262 | 64.80387 | 13695 ft | 195 kts | 187° |
| 2026-04-25 11:10 | 58.81911 | 64.80339 | 13720 ft | 194 kts | 187° |
| 2026-04-25 11:11 | 58.80560 | 64.80288 | 13709 ft | 195 kts | 187° |
| 2026-04-25 11:11 | 58.79218 | 64.80239 | 13711 ft | 194 kts | 187° |
| 2026-04-25 11:11 | 58.77862 | 64.80188 | 13711 ft | 195 kts | 187° |
| 2026-04-25 11:11 | 58.76516 | 64.80138 | 13693 ft | 195 kts | 187° |
| 2026-04-25 11:12 | 58.75163 | 64.80088 | 13718 ft | 194 kts | 187° |
| 2026-04-25 11:12 | 58.73796 | 64.80039 | 13704 ft | 195 kts | 187° |
| 2026-04-25 11:12 | 58.72448 | 64.79987 | 13703 ft | 196 kts | 187° |
| 2026-04-25 11:12 | 58.71088 | 64.79939 | 13693 ft | 196 kts | 187° |
| 2026-04-25 11:13 | 58.69726 | 64.79889 | 13703 ft | 195 kts | 187° |
| 2026-04-25 11:13 | 58.68378 | 64.79839 | 13688 ft | 196 kts | 187° |
| 2026-04-25 11:13 | 58.67009 | 64.79789 | 13702 ft | 195 kts | 187° |
| 2026-04-25 11:13 | 58.65679 | 64.79742 | 13719 ft | 194 kts | 187° |
| 2026-04-25 11:14 | 58.64317 | 64.79691 | 13701 ft | 195 kts | 187° |
| 2026-04-25 11:14 | 58.62964 | 64.79642 | 13705 ft | 194 kts | 187° |
| 2026-04-25 11:14 | 58.61617 | 64.79593 | 13681 ft | 196 kts | 187° |
| 2026-04-25 11:14 | 58.60259 | 64.79545 | 13694 ft | 194 kts | 187° |
| 2026-04-25 11:15 | 58.58923 | 64.79496 | 13714 ft | 193 kts | 187° |
| 2026-04-25 11:15 | 58.57571 | 64.79447 | 13697 ft | 194 kts | 187° |
| 2026-04-25 11:15 | 58.56235 | 64.79399 | 13717 ft | 193 kts | 187° |
| 2026-04-25 11:15 | 58.54897 | 64.79351 | 13712 ft | 193 kts | 187° |
| 2026-04-25 11:16 | 58.52212 | 64.79255 | 13737 ft | 192 kts | 187° |
| 2026-04-25 11:16 | 58.50890 | 64.79205 | 13704 ft | 193 kts | 187° |
| 2026-04-25 11:16 | 58.49531 | 64.79158 | 13713 ft | 193 kts | 188° |
| 2026-04-25 11:17 | 58.48209 | 64.79110 | 13714 ft | 193 kts | 188° |
| 2026-04-25 11:17 | 58.46863 | 64.79061 | 13696 ft | 194 kts | 188° |
| 2026-04-25 11:17 | 58.45527 | 64.79013 | 13717 ft | 193 kts | 188° |
| 2026-04-25 11:17 | 58.44187 | 64.78965 | 13720 ft | 193 kts | 187° |
| 2026-04-25 11:18 | 58.42839 | 64.78916 | 13730 ft | 192 kts | 188° |
| 2026-04-25 11:18 | 58.41507 | 64.78889 | 13742 ft | 192 kts | 187° |
| 2026-04-25 11:18 | 58.40179 | 64.78886 | 13714 ft | 193 kts | 187° |
| 2026-04-25 11:18 | 58.38844 | 64.78881 | 13726 ft | 193 kts | 187° |
| 2026-04-25 11:19 | 58.37489 | 64.78878 | 13729 ft | 193 kts | 187° |
| 2026-04-25 11:19 | 58.36163 | 64.78873 | 13724 ft | 193 kts | 187° |
| 2026-04-25 11:19 | 58.34818 | 64.78871 | 13719 ft | 192 kts | 187° |
| 2026-04-25 11:19 | 58.33494 | 64.78866 | 13700 ft | 193 kts | 187° |
| 2026-04-25 11:20 | 58.32149 | 64.78863 | 13715 ft | 192 kts | 186° |
| 2026-04-25 11:20 | 58.30812 | 64.78859 | 13701 ft | 193 kts | 187° |
| 2026-04-25 11:20 | 58.29475 | 64.78856 | 13705 ft | 192 kts | 187° |
| 2026-04-25 11:20 | 58.28151 | 64.78851 | 13712 ft | 191 kts | 186° |
| 2026-04-25 11:21 | 58.26812 | 64.78848 | 13698 ft | 192 kts | 186° |
| 2026-04-25 11:21 | 58.25495 | 64.78845 | 13718 ft | 190 kts | 187° |
| 2026-04-25 11:21 | 58.24166 | 64.78840 | 13698 ft | 191 kts | 187° |
| 2026-04-25 11:21 | 58.22845 | 64.78838 | 13702 ft | 191 kts | 187° |
| 2026-04-25 11:22 | 58.21515 | 64.78833 | 13709 ft | 190 kts | 187° |
| 2026-04-25 11:22 | 58.20203 | 64.78829 | 13703 ft | 190 kts | 187° |
| 2026-04-25 11:22 | 58.18870 | 64.78825 | 13719 ft | 190 kts | 187° |
| 2026-04-25 11:22 | 58.17563 | 64.78821 | 13698 ft | 191 kts | 187° |
| 2026-04-25 11:23 | 58.16226 | 64.78818 | 13714 ft | 190 kts | 187° |
| 2026-04-25 11:23 | 58.14908 | 64.78809 | 13718 ft | 190 kts | 187° |
| 2026-04-25 11:23 | 58.13578 | 64.78799 | 13692 ft | 191 kts | 187° |
| 2026-04-25 11:23 | 58.12273 | 64.78790 | 13709 ft | 190 kts | 187° |
| 2026-04-25 11:24 | 58.10946 | 64.78780 | 13709 ft | 190 kts | 187° |
| 2026-04-25 11:24 | 58.09628 | 64.78771 | 13713 ft | 190 kts | 187° |
| 2026-04-25 11:24 | 58.08310 | 64.78762 | 13721 ft | 189 kts | 187° |
| 2026-04-25 11:24 | 58.06990 | 64.78752 | 13722 ft | 189 kts | 187° |
| 2026-04-25 11:25 | 58.05689 | 64.78744 | 13727 ft | 189 kts | 187° |
| 2026-04-25 11:25 | 58.04367 | 64.78733 | 13723 ft | 189 kts | 187° |
| 2026-04-25 11:25 | 58.03050 | 64.78734 | 13740 ft | 189 kts | 186° |
| 2026-04-25 11:25 | 58.01738 | 64.79132 | 13764 ft | 194 kts | 175° |
| 2026-04-25 11:26 | 58.00428 | 64.79755 | 13660 ft | 198 kts | 175° |
| 2026-04-25 11:26 | 57.99083 | 64.80373 | 13692 ft | 196 kts | 175° |
| 2026-04-25 11:26 | 57.97786 | 64.80981 | 13822 ft | 190 kts | 175° |
| 2026-04-25 11:26 | 57.96487 | 64.81576 | 13706 ft | 196 kts | 176° |
| 2026-04-25 11:27 | 57.95155 | 64.82182 | 13648 ft | 198 kts | 175° |
| 2026-04-25 11:27 | 57.93851 | 64.82793 | 13806 ft | 190 kts | 175° |
| 2026-04-25 11:27 | 57.92578 | 64.83398 | 13752 ft | 193 kts | 175° |
| 2026-04-25 11:27 | 57.91682 | 64.83815 | 13643 ft | 198 kts | 175° |
| 2026-04-25 11:28 | 57.89934 | 64.84642 | 13778 ft | 191 kts | 175° |
| 2026-04-25 11:28 | 57.88640 | 64.85261 | 13811 ft | 192 kts | 176° |
| 2026-04-25 11:28 | 57.87329 | 64.85866 | 13635 ft | 201 kts | 175° |
| 2026-04-25 11:28 | 57.85989 | 64.86546 | 13735 ft | 197 kts | 173° |
| 2026-04-25 11:29 | 57.84701 | 64.87299 | 13836 ft | 194 kts | 173° |
| 2026-04-25 11:29 | 57.83375 | 64.88056 | 13680 ft | 201 kts | 173° |
| 2026-04-25 11:29 | 57.82036 | 64.88821 | 13660 ft | 202 kts | 173° |
| 2026-04-25 11:29 | 57.80741 | 64.89639 | 13656 ft | 189 kts | 171° |
| 2026-04-25 11:30 | 57.79527 | 64.90449 | 13258 ft | 189 kts | 171° |
| 2026-04-25 11:30 | 57.78288 | 64.91277 | 12881 ft | 187 kts | 171° |
| 2026-04-25 11:30 | 57.77081 | 64.92115 | 12503 ft | 188 kts | 168° |
| 2026-04-25 11:30 | 57.75860 | 64.93044 | 12095 ft | 189 kts | 167° |
| 2026-04-25 11:31 | 57.74661 | 64.93993 | 11700 ft | 190 kts | 166° |
| 2026-04-25 11:31 | 57.73440 | 64.94924 | 11313 ft | 188 kts | 168° |
| 2026-04-25 11:31 | 57.72223 | 64.95727 | 10937 ft | 186 kts | 170° |
| 2026-04-25 11:31 | 57.71008 | 64.96511 | 10563 ft | 186 kts | 170° |
| 2026-04-25 11:32 | 57.69804 | 64.97304 | 10194 ft | 185 kts | 169° |
| 2026-04-25 11:32 | 57.68597 | 64.98102 | 9821 ft | 185 kts | 169° |
| 2026-04-25 11:32 | 57.67381 | 64.98844 | 9435 ft | 185 kts | 170° |
| 2026-04-25 11:32 | 57.66171 | 64.99590 | 9055 ft | 185 kts | 169° |
| 2026-04-25 11:33 | 57.64955 | 65.00382 | 8691 ft | 185 kts | 168° |
| 2026-04-25 11:33 | 57.63739 | 65.01182 | 8305 ft | 185 kts | 169° |
| 2026-04-25 11:33 | 57.62526 | 65.01969 | 7926 ft | 185 kts | 168° |
| 2026-04-25 11:33 | 57.61320 | 65.02778 | 7563 ft | 186 kts | 167° |
| 2026-04-25 11:34 | 57.60110 | 65.03607 | 7192 ft | 186 kts | 167° |
| 2026-04-25 11:34 | 57.58916 | 65.04459 | 6838 ft | 186 kts | 166° |
| 2026-04-25 11:34 | 57.57717 | 65.05306 | 6468 ft | 186 kts | 167° |
| 2026-04-25 11:34 | 57.56493 | 65.06117 | 6113 ft | 185 kts | 166° |
| 2026-04-25 11:35 | 57.55302 | 65.06950 | 5792 ft | 183 kts | 165° |
| 2026-04-25 11:35 | 57.54137 | 65.07842 | 5457 ft | 183 kts | 163° |
| 2026-04-25 11:35 | 57.52975 | 65.08816 | 5094 ft | 184 kts | 161° |
| 2026-04-25 11:35 | 57.51833 | 65.09862 | 4772 ft | 182 kts | 159° |
| 2026-04-25 11:36 | 57.50731 | 65.10986 | 4463 ft | 181 kts | 156° |
| 2026-04-25 11:36 | 57.49649 | 65.12168 | 4121 ft | 180 kts | 156° |
| 2026-04-25 11:36 | 57.48542 | 65.13148 | 3853 ft | 174 kts | 161° |
| 2026-04-25 11:36 | 57.47457 | 65.14032 | 3639 ft | 168 kts | 162° |
| 2026-04-25 11:37 | 57.46371 | 65.14859 | 3369 ft | 173 kts | 163° |
| 2026-04-25 11:37 | 57.45269 | 65.15633 | 3408 ft | 164 kts | 164° |
| 2026-04-25 11:37 | 57.44228 | 65.16375 | 3388 ft | 162 kts | 163° |
| 2026-04-25 11:37 | 57.43144 | 65.17169 | 3169 ft | 171 kts | 163° |
| 2026-04-25 11:38 | 57.42048 | 65.17915 | 3194 ft | 165 kts | 166° |
| 2026-04-25 11:38 | 57.40982 | 65.18564 | 3199 ft | 163 kts | 166° |
| 2026-04-25 11:38 | 57.39885 | 65.19255 | 3053 ft | 169 kts | 165° |
| 2026-04-25 11:38 | 57.38789 | 65.20022 | 3051 ft | 167 kts | 162° |
| 2026-04-25 11:39 | 57.37733 | 65.20860 | 3071 ft | 164 kts | 160° |
| 2026-04-25 11:39 | 57.36691 | 65.21798 | 2968 ft | 169 kts | 157° |
| 2026-04-25 11:39 | 57.35629 | 65.22664 | 2952 ft | 166 kts | 163° |
| 2026-04-25 11:39 | 57.34567 | 65.23394 | 2976 ft | 162 kts | 165° |
| 2026-04-25 11:40 | 57.33474 | 65.24042 | 2885 ft | 165 kts | 166° |
| 2026-04-25 11:40 | 57.32379 | 65.24683 | 2840 ft | 165 kts | 166° |
| 2026-04-25 11:40 | 57.31300 | 65.25348 | 2843 ft | 163 kts | 166° |
| 2026-04-25 11:40 | 57.30210 | 65.25976 | 2790 ft | 164 kts | 166° |
| 2026-04-25 11:41 | 57.29132 | 65.26585 | 2781 ft | 163 kts | 168° |
| 2026-04-25 11:41 | 57.28038 | 65.27166 | 2747 ft | 163 kts | 168° |
| 2026-04-25 11:41 | 57.26949 | 65.27747 | 2690 ft | 164 kts | 167° |
| 2026-04-25 11:41 | 57.25868 | 65.28355 | 2669 ft | 163 kts | 167° |
| 2026-04-25 11:42 | 57.24773 | 65.28982 | 2647 ft | 163 kts | 167° |
| 2026-04-25 11:42 | 57.23685 | 65.29527 | 2583 ft | 164 kts | 169° |
| 2026-04-25 11:42 | 57.22581 | 65.30052 | 2552 ft | 164 kts | 169° |
| 2026-04-25 11:42 | 57.21494 | 65.30560 | 2655 ft | 155 kts | 171° |
| 2026-04-25 11:43 | 57.20507 | 65.30971 | 2838 ft | 138 kts | 172° |
| 2026-04-25 11:43 | 57.19582 | 65.31355 | 2656 ft | 134 kts | 170° |
| 2026-04-25 11:43 | 57.18671 | 65.31743 | 2356 ft | 137 kts | 171° |
| 2026-04-25 11:43 | 57.17766 | 65.32032 | 2205 ft | 129 kts | 174° |
| 2026-04-25 11:44 | 57.16885 | 65.32327 | 2054 ft | 125 kts | 173° |
| 2026-04-25 11:44 | 57.16087 | 65.32628 | 2026 ft | 111 kts | 173° |
| 2026-04-25 11:44 | 57.15344 | 65.32972 | 1912 ft | 113 kts | 168° |
| 2026-04-25 11:44 | 57.14603 | 65.33565 | 1712 ft | 123 kts | 148° |
| 2026-04-25 11:45 | 57.14167 | 65.34953 | 1565 ft | 132 kts | 108° |
| 2026-04-25 11:45 | 57.14214 | 65.36705 | 1340 ft | 142 kts | 81° |
| 2026-04-25 11:45 | 57.14654 | 65.38292 | 1173 ft | 144 kts | 46° |
| 2026-04-25 11:45 | 57.15521 | 65.39103 | 1020 ft | 140 kts | 5° |
| 2026-04-25 11:46 | 57.16430 | 65.38763 | 939 ft | 129 kts | 319° |
| 2026-04-25 11:46 | 57.16821 | 65.37405 | 711 ft | 124 kts | 276° |
| 2026-04-25 11:46 | 57.17118 | 65.35900 | 522 ft | 127 kts | 298° |
| 2026-04-25 11:46 | 57.17726 | 65.34721 | 341 ft | 117 kts | 310° |
| 2026-04-25 11:47 | 57.18200 | 65.33823 | 335 ft | 75 kts | 315° |
| 2026-04-25 11:47 | 57.18449 | 65.33363 | 326 ft | 30 kts | 314° |
| 2026-04-25 11:47 | 57.18573 | 65.33264 | 322 ft | 17 kts | 49° |
| 2026-04-25 11:47 | 57.18621 | 65.33449 | 318 ft | 15 kts | 90° |
| 2026-04-25 11:48 | 57.18601 | 65.33627 | 316 ft | 12 kts | 135° |
| 2026-04-25 11:48 | 57.18549 | 65.33721 | 316 ft | 8 kts | 134° |
| 2026-04-25 11:48 | 57.18518 | 65.33779 | 318 ft | 4 kts | 132° |
| 2026-04-25 11:48 | 57.18489 | 65.33835 | 319 ft | 11 kts | 135° |
| 2026-04-25 11:49 | 57.18444 | 65.33919 | 321 ft | 15 kts | 134° |
| 2026-04-25 11:49 | 57.18380 | 65.34039 | 325 ft | 11 kts | 135° |
| 2026-04-25 11:49 | 57.18297 | 65.34193 | 327 ft | 17 kts | 134° |
| 2026-04-25 11:49 | 57.18198 | 65.34381 | 329 ft | 20 kts | 134° |
| 2026-04-25 11:50 | 57.18104 | 65.34551 | 331 ft | 22 kts | 135° |
| 2026-04-25 11:50 | 57.18007 | 65.34733 | 332 ft | 17 kts | 134° |
| 2026-04-25 11:50 | 57.17917 | 65.34898 | 333 ft | 18 kts | 135° |
| 2026-04-25 11:50 | 57.17842 | 65.35040 | 335 ft | 12 kts | 136° |
| 2026-04-25 11:51 | 57.17785 | 65.35027 | 335 ft | 7 kts | 218° |
| 2026-04-25 11:51 | 57.17768 | 65.35072 | 335 ft | 3 kts | 43° |